Time;durP1;ratioP1;P1;durP2;ratioP2;P2;SDS_P1;SDS_P2;PMS_P1;PMS_P2;Temp;Humidity;BMP_temperature;BMP_pressure;BME280_temperature;BME280_humidity;BME280_pressure;Samples;Min_cycle;Max_cycle;Signal;HPM_P1;HPM_P2
2022/02/14 00:00:29;;;;;;;8.10;3.92;;;2.80;99.90;;;;;;5067879;28;20196;-83
2022/02/14 00:02:57;;;;;;;6.30;3.78;;;2.70;99.90;;;;;;5064635;28;20448;-86
2022/02/14 00:05:25;;;;;;;3.95;3.55;;;2.70;99.90;;;;;;5067689;28;20362;-85
2022/02/14 00:07:52;;;;;;;5.65;3.55;;;2.70;99.90;;;;;;5083322;28;20492;-83
2022/02/14 00:10:19;;;;;;;4.70;3.60;;;2.80;99.90;;;;;;5094181;28;20207;-85
2022/02/14 00:12:47;;;;;;;8.05;5.00;;;3.00;99.90;;;;;;5087155;28;20225;-83
2022/02/14 00:15:14;;;;;;;4.82;3.80;;;3.00;99.90;;;;;;5098291;28;20212;-87
2022/02/14 00:17:42;;;;;;;5.90;4.20;;;3.10;99.90;;;;;;5124371;28;20197;-86
2022/02/14 00:20:09;;;;;;;3.80;3.42;;;3.30;99.90;;;;;;5108169;28;20501;-84
2022/02/14 00:22:37;;;;;;;4.80;3.72;;;3.30;99.90;;;;;;5092618;28;20364;-84
2022/02/14 00:25:05;;;;;;;3.85;3.53;;;3.30;99.90;;;;;;5095140;28;20374;-85
2022/02/14 00:27:34;;;;;;;7.03;4.47;;;3.40;99.90;;;;;;5096279;28;20223;-87
2022/02/14 00:30:02;;;;;;;5.82;3.63;;;3.40;99.90;;;;;;5086286;28;20196;-87
2022/02/14 00:32:31;;;;;;;4.00;3.17;;;3.30;99.90;;;;;;5087050;28;20232;-87
2022/02/14 00:35:00;;;;;;;3.70;3.40;;;3.30;99.90;;;;;;5088785;28;20196;-88
2022/02/14 00:37:28;;;;;;;3.88;3.53;;;3.40;99.90;;;;;;5086800;28;20202;-89
2022/02/14 00:39:55;;;;;;;6.82;4.68;;;3.50;99.90;;;;;;5087097;28;20193;-86
2022/02/14 00:42:24;;;;;;;3.65;3.15;;;3.40;99.90;;;;;;5087254;28;20201;-87
2022/02/14 00:44:51;;;;;;;5.00;3.72;;;3.40;99.90;;;;;;5095829;28;20206;-91
2022/02/14 00:47:20;;;;;;;6.75;3.85;;;3.40;99.90;;;;;;5096892;28;20215;-85
2022/02/14 00:49:48;;;;;;;8.93;5.85;;;3.40;99.90;;;;;;5097007;28;20208;-89
2022/02/14 00:52:16;;;;;;;14.00;5.07;;;3.30;99.90;;;;;;5094619;28;20276;-88
2022/02/14 00:54:44;;;;;;;7.90;4.47;;;3.40;99.90;;;;;;5086060;28;20287;-85
2022/02/14 00:57:11;;;;;;;6.93;4.80;;;3.40;99.90;;;;;;5086596;28;20273;-89
2022/02/14 00:59:39;;;;;;;5.55;4.57;;;3.30;99.90;;;;;;5087335;28;20256;-85
2022/02/14 01:02:06;;;;;;;8.75;4.15;;;3.40;99.90;;;;;;5088830;28;20209;-85
2022/02/14 01:04:33;;;;;;;9.43;6.45;;;3.40;99.90;;;;;;5099575;28;20208;-86
2022/02/14 01:07:01;;;;;;;7.97;4.90;;;3.30;99.90;;;;;;5085384;28;20200;-87
2022/02/14 01:09:28;;;;;;;7.20;5.47;;;3.40;99.90;;;;;;5084646;28;20196;-84
2022/02/14 01:11:56;;;;;;;6.50;5.22;;;3.40;99.90;;;;;;5086566;28;20552;-83
2022/02/14 01:14:23;;;;;;;6.05;4.65;;;3.30;99.90;;;;;;5086398;28;20200;-87
2022/02/14 01:16:51;;;;;;;5.60;4.95;;;3.10;99.90;;;;;;5085542;28;20232;-86
2022/02/14 01:19:18;;;;;;;9.48;5.07;;;2.90;99.90;;;;;;5085504;28;20513;-86
2022/02/14 01:21:45;;;;;;;7.53;4.50;;;2.90;99.90;;;;;;5083739;28;20488;-85
2022/02/14 01:24:13;;;;;;;6.65;4.93;;;3.00;99.90;;;;;;5084299;28;20205;-85
2022/02/14 01:26:42;;;;;;;7.30;5.18;;;3.00;99.90;;;;;;5085730;28;20254;-85
2022/02/14 01:29:09;;;;;;;6.47;4.32;;;3.00;99.90;;;;;;5100948;28;20203;-86
2022/02/14 01:31:37;;;;;;;6.07;5.43;;;3.10;99.90;;;;;;5101078;28;20235;-88
2022/02/14 01:34:04;;;;;;;6.03;5.10;;;3.20;99.90;;;;;;5101751;28;20431;-87
2022/02/14 01:36:31;;;;;;;8.15;5.88;;;3.10;99.90;;;;;;5102577;28;20216;-87
2022/02/14 01:38:59;;;;;;;8.77;5.25;;;3.00;99.90;;;;;;5084962;28;20209;-89
2022/02/14 01:41:26;;;;;;;8.25;4.80;;;3.20;99.90;;;;;;5100724;28;20207;-88
2022/02/14 01:43:54;;;;;;;7.05;5.13;;;3.10;99.90;;;;;;5092566;28;20267;-86
2022/02/14 01:46:22;;;;;;;7.20;4.28;;;3.10;99.90;;;;;;5085272;28;20200;-89
2022/02/14 01:48:49;;;;;;;5.75;4.30;;;2.90;99.90;;;;;;5084716;28;20263;-86
2022/02/14 01:51:16;;;;;;;7.70;5.55;;;2.90;99.90;;;;;;5068247;28;20315;-87
2022/02/14 01:53:44;;;;;;;8.18;5.10;;;2.90;99.90;;;;;;5082665;28;20211;-86
2022/02/14 01:56:12;;;;;;;7.63;4.85;;;2.80;99.90;;;;;;5084383;28;20192;-87
2022/02/14 01:58:39;;;;;;;9.15;5.57;;;2.70;99.90;;;;;;5099719;28;20218;-87
2022/02/14 02:01:07;;;;;;;9.25;6.22;;;2.50;99.90;;;;;;5099828;28;20203;-88
2022/02/14 02:03:35;;;;;;;8.65;6.75;;;2.30;99.90;;;;;;5099087;28;20199;-88
2022/02/14 02:06:04;;;;;;;9.27;5.63;;;2.20;99.90;;;;;;5082815;28;20564;-88
2022/02/14 02:08:32;;;;;;;7.25;4.97;;;2.10;99.90;;;;;;5084851;28;20377;-89
2022/02/14 02:13:51;;;;;;;10.32;5.47;;;1.90;99.90;;;;;;5085077;28;20216;-87
2022/02/14 02:16:19;;;;;;;10.85;6.28;;;1.80;99.90;;;;;;5084407;28;20206;-88
2022/02/14 02:18:46;;;;;;;9.55;7.30;;;1.90;99.90;;;;;;5100428;28;20206;-88
2022/02/14 02:21:14;;;;;;;8.55;5.28;;;2.00;99.90;;;;;;5083082;28;20440;-87
2022/02/14 02:23:42;;;;;;;10.75;6.20;;;1.90;99.90;;;;;;5084700;28;20187;-86
2022/02/14 02:26:10;;;;;;;13.10;7.25;;;2.00;99.90;;;;;;5083043;28;20208;-86
2022/02/14 02:28:38;;;;;;;14.85;7.45;;;2.10;99.90;;;;;;5084315;28;20204;-88
2022/02/14 02:31:06;;;;;;;10.82;6.47;;;2.10;99.90;;;;;;5083281;28;20203;-87
2022/02/14 02:33:34;;;;;;;7.85;5.18;;;2.20;99.90;;;;;;5100165;28;20215;-85
2022/02/14 02:36:01;;;;;;;12.32;6.63;;;2.10;99.90;;;;;;5084519;28;20195;-88
2022/02/14 02:38:29;;;;;;;11.40;5.88;;;2.20;99.90;;;;;;5084937;28;20202;-91
2022/02/14 02:40:56;;;;;;;9.65;6.38;;;2.30;99.90;;;;;;5083787;28;20389;-89
2022/02/14 02:43:24;;;;;;;7.75;5.20;;;2.20;99.90;;;;;;5099885;28;20209;-91
2022/02/14 02:45:57;;;;;;;10.77;6.10;;;2.20;99.90;;;;;;5101115;28;20198;-89
2022/02/14 02:48:25;;;;;;;8.18;5.90;;;2.30;99.90;;;;;;5085746;28;20213;-88
2022/02/14 02:51:02;;;;;;;7.20;5.88;;;2.30;99.90;;;;;;5085301;28;20192;-89
2022/02/14 02:53:33;;;;;;;13.13;6.18;;;2.30;99.90;;;;;;5083618;28;20241;-89
2022/02/14 02:56:04;;;;;;;6.70;5.57;;;2.40;99.90;;;;;;5083475;28;20203;-86
2022/02/14 02:58:31;;;;;;;9.27;5.85;;;2.50;99.90;;;;;;5083823;28;20200;-88
2022/02/14 03:00:58;;;;;;;13.25;5.35;;;2.40;99.90;;;;;;5083914;28;20210;-86
2022/02/14 03:03:26;;;;;;;8.02;5.65;;;2.40;99.90;;;;;;5083833;28;20201;-86
2022/02/14 03:05:53;;;;;;;9.52;6.85;;;2.60;99.90;;;;;;5083212;28;20203;-87
2022/02/14 03:08:21;;;;;;;6.65;5.60;;;2.80;99.90;;;;;;5082911;28;20207;-85
2022/02/14 03:10:48;;;;;;;7.03;4.20;;;2.90;99.90;;;;;;5082484;28;20345;-87
2022/02/14 03:13:16;;;;;;;8.80;4.60;;;2.90;99.90;;;;;;5081467;28;20213;-86
2022/02/14 03:15:43;;;;;;;10.20;6.32;;;3.00;99.90;;;;;;5084327;28;20201;-89
2022/02/14 03:18:11;;;;;;;6.22;4.80;;;3.20;99.90;;;;;;5083899;28;20204;-86
2022/02/14 03:20:38;;;;;;;6.05;4.70;;;3.20;99.90;;;;;;5084465;28;20191;-88
2022/02/14 03:23:07;;;;;;;8.80;5.90;;;3.20;99.90;;;;;;5083105;28;20200;-85
2022/02/14 03:25:34;;;;;;;8.68;5.75;;;3.20;99.90;;;;;;5083347;28;20508;-89
2022/02/14 03:28:02;;;;;;;10.65;5.78;;;3.20;99.90;;;;;;5081954;28;20208;-87
2022/02/14 03:30:29;;;;;;;8.43;5.70;;;3.20;99.90;;;;;;5082621;28;20212;-87
2022/02/14 03:32:56;;;;;;;15.65;5.55;;;3.20;99.90;;;;;;5083517;28;20228;-89
2022/02/14 03:35:24;;;;;;;8.88;6.60;;;3.10;99.90;;;;;;5082517;28;20534;-89
2022/02/14 03:37:53;;;;;;;6.20;4.80;;;3.10;99.90;;;;;;5072968;28;20220;-88
2022/02/14 03:40:20;;;;;;;8.88;5.60;;;3.00;99.90;;;;;;5063756;28;20299;-91
2022/02/14 03:42:48;;;;;;;8.25;5.13;;;3.00;99.90;;;;;;5063454;28;20177;-90
2022/02/14 03:45:15;;;;;;;8.05;5.88;;;3.10;99.90;;;;;;5063755;28;20201;-90
2022/02/14 03:47:43;;;;;;;10.75;6.30;;;3.00;99.90;;;;;;5064559;28;20198;-90
2022/02/14 03:50:10;;;;;;;7.68;5.43;;;3.00;99.90;;;;;;5063888;28;20261;-89
2022/02/14 03:52:38;;;;;;;8.95;6.38;;;3.00;99.90;;;;;;5064421;28;20209;-86
2022/02/14 03:55:06;;;;;;;7.88;5.85;;;3.00;99.90;;;;;;5064388;28;20494;-85
2022/02/14 03:57:33;;;;;;;10.27;5.75;;;3.00;99.90;;;;;;5063620;28;20382;-87
2022/02/14 04:00:04;;;;;;;7.45;5.20;;;3.00;99.90;;;;;;5065667;28;20537;-89
2022/02/14 04:02:31;;;;;;;9.65;7.10;;;2.90;99.90;;;;;;5064251;28;20201;-89
2022/02/14 04:04:59;;;;;;;8.32;6.20;;;2.90;99.90;;;;;;5064056;28;20203;-90
2022/02/14 04:07:27;;;;;;;9.43;5.97;;;2.90;99.90;;;;;;5064497;28;20188;-87
2022/02/14 04:09:55;;;;;;;6.97;4.90;;;2.80;99.90;;;;;;5061686;28;20230;-85
2022/02/14 04:12:24;;;;;;;9.23;5.70;;;2.80;99.90;;;;;;5063087;28;20216;-87
2022/02/14 04:14:52;;;;;;;6.20;5.30;;;2.80;99.90;;;;;;5064368;28;20283;-86
2022/02/14 04:17:19;;;;;;;11.77;6.65;;;2.70;99.90;;;;;;5062266;28;20208;-86
2022/02/14 04:19:46;;;;;;;7.47;5.82;;;2.90;99.90;;;;;;5063293;28;20200;-86
2022/02/14 04:22:14;;;;;;;8.63;6.22;;;2.90;99.90;;;;;;5062646;28;20235;-86
2022/02/14 04:24:41;;;;;;;9.77;5.63;;;2.80;99.90;;;;;;5068169;28;20195;-87
2022/02/14 04:27:09;;;;;;;11.10;5.88;;;2.80;99.90;;;;;;5066394;28;20203;-87
2022/02/14 04:29:37;;;;;;;8.25;6.00;;;2.80;99.90;;;;;;5069110;28;20478;-85
2022/02/14 04:32:04;;;;;;;9.45;6.60;;;2.80;99.90;;;;;;5097299;28;20492;-88
2022/02/14 04:34:33;;;;;;;5.68;5.10;;;2.90;99.90;;;;;;5090090;28;20208;-88
2022/02/14 04:37:02;;;;;;;12.85;7.90;;;2.90;99.90;;;;;;5088736;28;20359;-86
2022/02/14 04:39:29;;;;;;;7.40;5.75;;;2.80;99.90;;;;;;5107086;28;20425;-86
2022/02/14 04:41:57;;;;;;;9.80;5.18;;;2.80;99.90;;;;;;5107256;28;20190;-86
2022/02/14 04:44:25;;;;;;;8.63;5.63;;;2.90;99.90;;;;;;5094706;28;20453;-88
2022/02/14 04:46:52;;;;;;;12.32;8.63;;;2.90;99.90;;;;;;5093047;28;20238;-87
2022/02/14 04:49:19;;;;;;;7.05;5.60;;;2.80;99.90;;;;;;5101647;28;20202;-88
2022/02/14 04:51:47;;;;;;;10.25;6.75;;;2.80;99.90;;;;;;5102048;28;20202;-86
2022/02/14 04:54:14;;;;;;;6.88;5.55;;;2.70;99.90;;;;;;5085651;28;20204;-88
2022/02/14 04:56:42;;;;;;;7.97;5.88;;;2.70;99.90;;;;;;5086778;28;20197;-86
2022/02/14 04:59:09;;;;;;;5.75;5.05;;;2.60;99.90;;;;;;5086372;28;20262;-88
2022/02/14 05:01:38;;;;;;;13.60;7.63;;;2.80;99.90;;;;;;5085918;28;20505;-86
2022/02/14 05:04:05;;;;;;;10.18;5.85;;;2.80;99.90;;;;;;5077701;28;20202;-87
2022/02/14 05:06:32;;;;;;;7.07;6.03;;;2.80;99.90;;;;;;5085145;28;20501;-85
2022/02/14 05:09:00;;;;;;;8.00;6.55;;;2.70;99.90;;;;;;5090462;28;20211;-86
2022/02/14 05:11:27;;;;;;;10.38;6.40;;;2.70;99.90;;;;;;5095131;28;20521;-88
2022/02/14 05:13:55;;;;;;;7.53;5.72;;;2.80;99.90;;;;;;5094235;28;20255;-88
2022/02/14 05:16:24;;;;;;;13.20;7.00;;;2.80;99.90;;;;;;5102870;28;20480;-85
2022/02/14 05:18:52;;;;;;;9.05;7.32;;;2.80;99.90;;;;;;5098017;28;20348;-85
2022/02/14 05:21:20;;;;;;;8.50;6.00;;;2.80;99.90;;;;;;5086027;28;20252;-86
2022/02/14 05:23:47;;;;;;;11.77;6.45;;;2.90;99.90;;;;;;5084846;28;20200;-84
2022/02/14 05:26:19;;;;;;;12.52;8.52;;;2.70;99.90;;;;;;5085731;28;20212;-87
2022/02/14 05:28:47;;;;;;;12.02;7.53;;;2.70;99.90;;;;;;5099205;28;20206;-84
2022/02/14 05:31:14;;;;;;;8.05;7.03;;;2.80;99.90;;;;;;5087794;28;20215;-83
2022/02/14 05:33:42;;;;;;;10.63;6.40;;;2.80;99.90;;;;;;5100606;28;20227;-85
2022/02/14 05:36:10;;;;;;;12.45;7.03;;;2.70;99.90;;;;;;5079068;28;20326;-83
2022/02/14 05:38:37;;;;;;;11.73;5.70;;;2.80;99.90;;;;;;5076622;28;20212;-86
2022/02/14 05:41:05;;;;;;;10.48;6.80;;;2.70;99.90;;;;;;5083996;28;20203;-83
2022/02/14 05:43:32;;;;;;;8.35;6.25;;;2.80;99.90;;;;;;5082063;28;20204;-84
2022/02/14 05:46:00;;;;;;;11.68;8.00;;;2.80;99.90;;;;;;5093937;28;20337;-84
2022/02/14 05:48:32;;;;;;;12.73;6.15;;;2.90;99.90;;;;;;5088447;28;20192;-85
2022/02/14 05:50:59;;;;;;;8.18;5.90;;;2.80;99.90;;;;;;5084041;28;20208;-87
2022/02/14 05:53:27;;;;;;;7.32;5.75;;;2.80;99.90;;;;;;5084498;28;20215;-85
2022/02/14 05:55:54;;;;;;;7.97;5.45;;;2.80;99.90;;;;;;5084658;28;20210;-84
2022/02/14 05:58:21;;;;;;;11.25;7.30;;;2.90;99.90;;;;;;5084142;28;20187;-83
2022/02/14 06:00:49;;;;;;;9.70;7.00;;;2.80;99.90;;;;;;5084179;28;20215;-85
2022/02/14 06:03:19;;;;;;;9.18;6.22;;;2.80;99.90;;;;;;5083905;28;20193;-85
2022/02/14 06:05:46;;;;;;;8.07;6.57;;;2.70;99.90;;;;;;5084544;28;20237;-88
2022/02/14 06:08:14;;;;;;;9.32;5.97;;;2.70;99.90;;;;;;5085098;28;20195;-85
2022/02/14 06:10:41;;;;;;;11.68;6.28;;;2.70;99.90;;;;;;5083212;28;20199;-85
2022/02/14 06:13:09;;;;;;;11.70;6.95;;;2.80;99.90;;;;;;5083794;28;20215;-85
2022/02/14 06:15:37;;;;;;;7.10;5.88;;;2.80;99.90;;;;;;5083102;28;20492;-82
2022/02/14 06:18:05;;;;;;;11.25;7.68;;;2.80;99.90;;;;;;5082678;28;20267;-84
2022/02/14 06:20:34;;;;;;;8.20;6.93;;;2.90;99.90;;;;;;5091961;28;20196;-85
2022/02/14 06:23:02;;;;;;;11.60;6.85;;;2.90;99.90;;;;;;5082065;28;20394;-85
2022/02/14 06:25:31;;;;;;;12.07;7.20;;;2.80;99.90;;;;;;5080616;28;20209;-84
2022/02/14 06:27:58;;;;;;;8.90;7.90;;;2.80;99.90;;;;;;5084732;28;20209;-88
2022/02/14 06:30:26;;;;;;;11.00;5.93;;;2.90;99.90;;;;;;5084706;28;20196;-87
2022/02/14 06:32:54;;;;;;;8.05;6.10;;;2.80;99.90;;;;;;5093739;28;20224;-87
2022/02/14 06:35:22;;;;;;;11.30;7.10;;;2.80;99.90;;;;;;5085017;28;20260;-86
2022/02/14 06:37:50;;;;;;;8.70;6.25;;;2.90;99.90;;;;;;5084038;28;20204;-87
2022/02/14 06:40:17;;;;;;;10.43;6.25;;;3.00;99.90;;;;;;5084781;28;20191;-87
2022/02/14 06:42:47;;;;;;;7.97;5.72;;;3.00;99.90;;;;;;5084726;28;20207;-87
2022/02/14 06:45:16;;;;;;;9.48;7.10;;;3.00;99.90;;;;;;5085619;28;20272;-87
2022/02/14 06:47:45;;;;;;;10.25;6.40;;;3.00;99.90;;;;;;5085547;28;20282;-86
2022/02/14 06:50:13;;;;;;;8.75;6.65;;;3.00;99.90;;;;;;5083317;28;20213;-85
2022/02/14 06:52:44;;;;;;;7.22;6.20;;;3.10;99.90;;;;;;5078508;28;20223;-87
2022/02/14 06:55:18;;;;;;;10.20;6.10;;;3.10;99.90;;;;;;5082883;28;20390;-86
2022/02/14 06:57:45;;;;;;;7.57;5.50;;;3.10;99.90;;;;;;5101487;28;20195;-84
2022/02/14 07:00:14;;;;;;;10.18;6.13;;;3.20;99.90;;;;;;5101499;28;20577;-87
2022/02/14 07:02:42;;;;;;;9.82;6.97;;;3.20;99.90;;;;;;5085094;28;20263;-87
2022/02/14 07:05:14;;;;;;;10.35;5.80;;;3.30;99.90;;;;;;5076559;28;20394;-86
2022/02/14 07:07:42;;;;;;;9.00;7.05;;;3.30;99.90;;;;;;5078368;28;20203;-88
2022/02/14 07:10:12;;;;;;;17.85;7.10;;;3.40;99.90;;;;;;5067288;28;20232;-88
2022/02/14 07:12:42;;;;;;;10.63;7.72;;;3.40;99.90;;;;;;5073976;28;20425;-87
2022/02/14 07:15:11;;;;;;;19.75;6.40;;;3.50;99.90;;;;;;5083996;28;20200;-87
2022/02/14 07:17:39;;;;;;;7.20;6.43;;;3.60;99.90;;;;;;5070561;28;20272;-87
2022/02/14 07:20:07;;;;;;;7.88;6.72;;;3.80;99.90;;;;;;5068747;28;20198;-86
2022/02/14 07:22:35;;;;;;;7.15;4.93;;;4.00;99.90;;;;;;5069316;28;20209;-87
2022/02/14 07:25:03;;;;;;;8.30;6.65;;;4.20;99.90;;;;;;5088566;28;20209;-87
2022/02/14 07:27:35;;;;;;;8.02;5.55;;;4.80;99.90;;;;;;5089752;28;20213;-86
2022/02/14 07:30:09;;;;;;;9.18;7.85;;;5.40;99.90;;;;;;5086627;28;20247;-90
2022/02/14 07:32:38;;;;;;;9.95;6.72;;;5.90;99.90;;;;;;5083983;28;20262;-85
2022/02/14 07:35:06;;;;;;;9.27;6.70;;;6.30;99.90;;;;;;5079426;28;20199;-87
2022/02/14 07:37:36;;;;;;;8.85;6.90;;;6.60;99.90;;;;;;5072926;28;20233;-87
2022/02/14 07:40:04;;;;;;;11.10;7.78;;;6.70;99.90;;;;;;5084182;28;20195;-87
2022/02/14 07:42:33;;;;;;;13.05;6.50;;;6.70;99.90;;;;;;5081598;28;20207;-87
2022/02/14 07:45:01;;;;;;;6.30;5.32;;;6.80;99.90;;;;;;5083854;28;20201;-90
2022/02/14 07:47:29;;;;;;;11.80;7.78;;;6.90;99.90;;;;;;5065788;28;20255;-90
2022/02/14 07:49:57;;;;;;;10.73;7.15;;;7.10;99.90;;;;;;5065495;28;20195;-85
2022/02/14 07:52:25;;;;;;;9.20;6.82;;;7.60;99.90;;;;;;5081046;28;20422;-91
2022/02/14 07:54:53;;;;;;;25.60;14.27;;;7.90;99.90;;;;;;5066158;28;20232;-89
2022/02/14 07:57:20;;;;;;;9.23;8.13;;;8.60;99.90;;;;;;5064902;28;20216;-91
2022/02/14 07:59:48;;;;;;;8.15;6.80;;;8.90;99.90;;;;;;5067911;28;20541;-88
2022/02/14 08:02:16;;;;;;;10.32;6.82;;;8.80;99.90;;;;;;5068353;28;20563;-89
2022/02/14 08:04:46;;;;;;;8.40;6.90;;;8.90;99.90;;;;;;5084941;28;20365;-87
2022/02/14 08:07:13;;;;;;;9.55;7.57;;;8.80;99.90;;;;;;5069182;28;20225;-89
2022/02/14 08:09:41;;;;;;;8.70;7.25;;;9.40;99.90;;;;;;5067978;28;20416;-86
2022/02/14 08:12:10;;;;;;;9.30;7.03;;;9.80;99.90;;;;;;5084840;28;20419;-90
2022/02/14 08:14:39;;;;;;;8.43;6.82;;;10.20;99.90;;;;;;5070573;28;20285;-89
2022/02/14 08:17:07;;;;;;;8.20;6.10;;;10.80;99.90;;;;;;5068985;28;20204;-87
2022/02/14 08:19:35;;;;;;;10.38;6.78;;;10.50;99.90;;;;;;5069532;28;20288;-91
2022/02/14 08:22:05;;;;;;;11.05;7.10;;;10.50;99.90;;;;;;5068679;28;20183;-90
2022/02/14 08:24:34;;;;;;;11.07;6.78;;;10.50;99.90;;;;;;5068662;28;20269;-90
2022/02/14 08:27:03;;;;;;;7.03;6.32;;;10.60;99.90;;;;;;5068179;28;20210;-89
2022/02/14 08:29:30;;;;;;;12.85;6.88;;;10.30;99.90;;;;;;5069366;28;20487;-87
2022/02/14 08:31:58;;;;;;;7.70;5.75;;;10.20;99.90;;;;;;5084256;28;20199;-89
2022/02/14 08:34:25;;;;;;;6.10;5.35;;;10.20;99.90;;;;;;5072751;28;20278;-89
2022/02/14 08:36:53;;;;;;;6.80;6.10;;;10.30;99.90;;;;;;5086669;28;20197;-85
2022/02/14 08:39:20;;;;;;;8.00;7.10;;;10.00;99.90;;;;;;5086870;28;20189;-90
2022/02/14 08:41:48;;;;;;;8.48;6.60;;;10.10;99.90;;;;;;5095636;28;20193;-88
2022/02/14 08:44:15;;;;;;;10.13;7.30;;;10.10;99.90;;;;;;5087866;28;20266;-86
2022/02/14 08:46:43;;;;;;;8.68;6.65;;;10.60;99.90;;;;;;5089274;28;20206;-88
2022/02/14 08:49:11;;;;;;;9.32;6.85;;;10.50;99.90;;;;;;5092880;28;20202;-90
2022/02/14 08:51:38;;;;;;;9.85;6.07;;;10.70;99.90;;;;;;5087171;28;20201;-88
2022/02/14 08:54:06;;;;;;;10.40;7.05;;;11.00;99.90;;;;;;5086428;28;20237;-86
2022/02/14 08:56:34;;;;;;;6.45;5.68;;;11.10;99.90;;;;;;5086330;28;20203;-86
2022/02/14 08:59:02;;;;;;;8.02;7.10;;;11.10;99.90;;;;;;5085398;28;20208;-86
2022/02/14 09:01:29;;;;;;;7.30;5.93;;;10.90;99.90;;;;;;5086240;28;20201;-84
2022/02/14 09:03:58;;;;;;;7.55;6.45;;;10.80;99.90;;;;;;5085981;28;20221;-87
2022/02/14 09:06:27;;;;;;;7.80;5.40;;;11.00;99.90;;;;;;5084306;28;20195;-87
2022/02/14 09:09:14;;;;;;;6.70;6.10;;;10.80;99.90;;;;;;5083546;28;20198;-87
2022/02/14 09:11:42;;;;;;;5.85;5.25;;;9.90;99.90;;;;;;5083572;28;20201;-86
2022/02/14 09:14:09;;;;;;;8.88;6.50;;;9.60;99.90;;;;;;5084857;28;20430;-84
2022/02/14 09:16:37;;;;;;;8.15;6.28;;;9.80;99.90;;;;;;5085449;28;20234;-87
2022/02/14 09:19:04;;;;;;;6.88;5.40;;;10.10;99.90;;;;;;5085049;28;20303;-84
2022/02/14 09:21:32;;;;;;;7.70;6.20;;;10.10;99.90;;;;;;5086313;28;20495;-85
2022/02/14 09:24:00;;;;;;;7.43;6.05;;;10.00;99.90;;;;;;5086797;28;20267;-89
2022/02/14 09:26:29;;;;;;;8.77;5.85;;;9.70;99.90;;;;;;5086430;28;20368;-89
2022/02/14 09:28:56;;;;;;;7.85;7.15;;;9.30;99.90;;;;;;5086746;28;20504;-89
2022/02/14 09:31:24;;;;;;;10.30;5.78;;;8.60;99.90;;;;;;5086795;28;20453;-84
2022/02/14 09:33:51;;;;;;;8.68;6.53;;;8.20;99.90;;;;;;5086464;28;20219;-86
2022/02/14 09:36:19;;;;;;;8.15;5.97;;;7.90;99.90;;;;;;5086525;28;20250;-89
2022/02/14 09:38:49;;;;;;;6.72;5.25;;;7.60;99.90;;;;;;5087657;28;20205;-88
2022/02/14 09:41:16;;;;;;;8.65;4.90;;;7.60;99.90;;;;;;5087429;28;20194;-87
2022/02/14 09:43:44;;;;;;;7.47;4.82;;;7.70;99.90;;;;;;5103131;28;20500;-88
2022/02/14 09:46:12;;;;;;;7.22;6.53;;;7.70;99.90;;;;;;5087081;28;20216;-87
2022/02/14 09:48:42;;;;;;;7.68;5.50;;;7.50;99.90;;;;;;5086431;28;20229;-92
2022/02/14 09:51:17;;;;;;;9.75;5.30;;;7.40;99.90;;;;;;5086103;28;20481;-89
2022/02/14 09:53:45;;;;;;;7.75;6.95;;;7.50;99.90;;;;;;5101568;28;20206;-85
2022/02/14 09:56:12;;;;;;;7.15;5.05;;;7.50;99.90;;;;;;5086771;28;20191;-87
2022/02/14 09:58:40;;;;;;;6.95;5.50;;;7.40;99.90;;;;;;5085496;28;20221;-85
2022/02/14 10:01:07;;;;;;;9.05;6.22;;;7.30;99.90;;;;;;5101653;28;20195;-86
2022/02/14 10:03:36;;;;;;;10.18;5.57;;;7.40;99.90;;;;;;5102575;28;20206;-87
2022/02/14 10:06:05;;;;;;;6.55;5.03;;;7.50;99.90;;;;;;5083881;28;20199;-83
2022/02/14 10:08:35;;;;;;;6.43;4.60;;;7.50;99.90;;;;;;5101479;28;20274;-87
2022/02/14 10:11:13;;;;;;;10.80;5.13;;;7.50;99.90;;;;;;5086129;28;20206;-87
2022/02/14 10:13:50;;;;;;;5.78;5.18;;;7.50;99.90;;;;;;5086469;28;20257;-87
2022/02/14 10:16:20;;;;;;;8.02;5.15;;;7.50;99.90;;;;;;5086641;28;20201;-89
2022/02/14 10:18:47;;;;;;;5.28;4.78;;;7.40;99.90;;;;;;5103258;28;20469;-87
2022/02/14 10:21:25;;;;;;;6.22;4.85;;;7.50;99.90;;;;;;5084717;28;20190;-90
2022/02/14 10:24:10;;;;;;;8.93;5.72;;;7.50;99.90;;;;;;5101577;28;20194;-91
2022/02/14 10:26:45;;;;;;;9.38;5.32;;;7.40;99.90;;;;;;5085873;28;20274;-91
2022/02/14 10:29:20;;;;;;;8.68;6.43;;;7.50;99.90;;;;;;5101489;28;20261;-92
2022/02/14 10:31:54;;;;;;;8.32;5.82;;;7.40;99.90;;;;;;5086512;28;20432;-92
2022/02/14 10:34:35;;;;;;;5.90;4.95;;;7.40;99.90;;;;;;5080056;28;20224;-86
2022/02/14 10:37:03;;;;;;;6.50;5.93;;;7.50;99.90;;;;;;5077382;28;20347;-88
2022/02/14 10:39:32;;;;;;;11.30;5.65;;;7.50;99.90;;;;;;5085837;28;20187;-87
2022/02/14 10:42:10;;;;;;;8.57;5.63;;;7.60;99.90;;;;;;5067054;28;20206;-89
2022/02/14 10:47:30;;;;;;;10.05;6.85;;;7.50;99.90;;;;;;5065537;28;20203;-92
2022/02/14 10:50:20;;;;;;;20.50;8.82;;;7.50;99.90;;;;;;5064244;28;20210;-89
2022/02/14 10:52:55;;;;;;;7.45;6.00;;;7.60;99.90;;;;;;5064974;28;20447;-89
2022/02/14 10:55:30;;;;;;;10.15;6.20;;;7.60;99.90;;;;;;5064681;28;20214;-89
2022/02/14 10:57:59;;;;;;;7.18;5.78;;;7.70;99.90;;;;;;5064060;28;20526;-90
2022/02/14 11:00:31;;;;;;;8.55;5.95;;;7.70;99.90;;;;;;5065776;28;20313;-88
2022/02/14 11:03:06;;;;;;;11.20;6.20;;;7.70;99.90;;;;;;5064779;28;20207;-88
2022/02/14 11:05:38;;;;;;;8.10;5.97;;;7.70;99.90;;;;;;5065946;28;20205;-88
2022/02/14 11:08:08;;;;;;;9.55;6.70;;;7.70;99.90;;;;;;5065877;28;20203;-89
2022/02/14 11:10:44;;;;;;;6.78;5.78;;;7.70;99.90;;;;;;5066163;28;20270;-88
2022/02/14 11:13:14;;;;;;;9.73;6.57;;;7.80;99.90;;;;;;5064296;28;20195;-87
2022/02/14 11:15:42;;;;;;;6.57;5.97;;;7.80;99.90;;;;;;5063948;28;20281;-87
2022/02/14 11:18:23;;;;;;;15.25;5.57;;;7.90;99.90;;;;;;5064658;28;20200;-91
2022/02/14 11:20:51;;;;;;;8.10;5.80;;;7.70;99.90;;;;;;5065209;28;20195;-88
2022/02/14 11:23:20;;;;;;;7.75;5.57;;;7.70;99.90;;;;;;5064218;28;20192;-86
2022/02/14 11:26:06;;;;;;;11.80;6.03;;;7.70;99.90;;;;;;5063207;28;20214;-87
2022/02/14 11:28:53;;;;;;;8.57;6.00;;;7.70;99.90;;;;;;5063675;28;20195;-89
2022/02/14 11:31:27;;;;;;;6.90;4.68;;;7.80;99.90;;;;;;5063387;28;20214;-86
2022/02/14 11:33:55;;;;;;;11.40;5.53;;;7.80;99.90;;;;;;5068379;28;20218;-90
2022/02/14 11:36:25;;;;;;;6.72;5.80;;;7.80;99.90;;;;;;5095331;28;20263;-90
2022/02/14 11:39:03;;;;;;;8.20;5.53;;;7.90;99.90;;;;;;5088470;28;20262;-88
2022/02/14 11:41:42;;;;;;;11.70;5.72;;;7.90;99.90;;;;;;5088468;28;20190;-86
2022/02/14 11:44:12;;;;;;;7.68;5.30;;;7.90;99.90;;;;;;5087464;28;20270;-89
2022/02/14 11:46:44;;;;;;;9.00;5.80;;;8.00;99.90;;;;;;5088733;28;20199;-89
2022/02/14 11:49:15;;;;;;;6.07;5.47;;;8.00;99.90;;;;;;5089979;28;20252;-87
2022/02/14 11:52:05;;;;;;;13.77;6.97;;;8.00;99.90;;;;;;5088507;28;20205;-90
2022/02/14 11:54:37;;;;;;;7.53;6.60;;;8.10;99.90;;;;;;5088688;28;20546;-85
2022/02/14 11:57:29;;;;;;;6.55;5.40;;;8.10;99.90;;;;;;5087744;28;20195;-87
2022/02/14 12:00:14;;;;;;;7.43;6.10;;;8.10;99.90;;;;;;5089528;28;20191;-86
2022/02/14 12:03:00;;;;;;;7.55;5.53;;;8.00;99.90;;;;;;5089169;28;20222;-87
2022/02/14 12:05:50;;;;;;;10.90;5.70;;;8.00;99.90;;;;;;5088028;28;20289;-87
2022/02/14 12:08:19;;;;;;;6.35;5.80;;;8.10;99.90;;;;;;5089537;28;20187;-90
2022/02/14 12:10:50;;;;;;;6.25;5.38;;;8.10;99.90;;;;;;5089420;28;20550;-91
2022/02/14 12:13:19;;;;;;;7.10;5.72;;;8.00;99.90;;;;;;5088789;28;20323;-90
2022/02/14 12:21:38;;;;;;;7.78;5.00;;;8.10;99.90;;;;;;5087778;28;20206;-87
2022/02/14 12:24:22;;;;;;;8.00;5.22;;;8.10;99.90;;;;;;5091115;28;20191;-86
2022/02/14 12:26:58;;;;;;;8.50;5.07;;;8.00;99.90;;;;;;5085612;28;20282;-89
2022/02/14 12:29:32;;;;;;;4.63;4.20;;;8.10;99.90;;;;;;5089162;28;20199;-86
2022/02/14 12:32:14;;;;;;;7.72;5.63;;;8.20;99.90;;;;;;5088034;28;20199;-88
2022/02/14 12:34:45;;;;;;;5.88;5.28;;;8.30;99.90;;;;;;5086942;28;20237;-89
2022/02/14 12:37:16;;;;;;;7.80;4.95;;;8.20;99.90;;;;;;5078645;28;20191;-89
2022/02/14 12:39:47;;;;;;;5.57;5.05;;;8.20;99.90;;;;;;5087339;28;20206;-92
2022/02/14 12:42:23;;;;;;;8.07;5.60;;;8.10;99.90;;;;;;5088096;28;20201;-90
2022/02/14 12:44:54;;;;;;;7.90;4.57;;;8.20;99.90;;;;;;5086963;28;20198;-86
2022/02/14 12:47:23;;;;;;;11.85;6.50;;;8.20;99.90;;;;;;5087574;28;20242;-89
2022/02/14 12:50:04;;;;;;;7.80;4.95;;;8.20;99.90;;;;;;5087404;28;20199;-85
2022/02/14 12:52:32;;;;;;;4.20;3.80;;;8.30;99.90;;;;;;5087011;28;20266;-89
2022/02/14 12:55:02;;;;;;;5.38;4.25;;;8.20;99.90;;;;;;5088257;28;20229;-87
2022/02/14 12:57:39;;;;;;;7.03;4.68;;;8.20;99.90;;;;;;5086436;28;20215;-88
2022/02/14 13:00:27;;;;;;;5.68;4.50;;;8.30;99.90;;;;;;5098381;28;20187;-88
2022/02/14 13:02:58;;;;;;;7.00;5.30;;;8.30;99.90;;;;;;5098527;28;20201;-88
2022/02/14 13:05:25;;;;;;;4.72;4.30;;;8.30;99.90;;;;;;5108139;28;20206;-89
2022/02/14 13:07:56;;;;;;;7.47;6.13;;;8.30;99.90;;;;;;5107434;28;20185;-86
2022/02/14 13:10:23;;;;;;;6.07;5.30;;;8.30;99.90;;;;;;5106220;28;20201;-89
2022/02/14 13:13:03;;;;;;;8.35;5.50;;;8.30;99.90;;;;;;5106516;28;20208;-88
2022/02/14 13:15:31;;;;;;;6.80;6.00;;;8.30;99.90;;;;;;5107112;28;20219;-90